RYR9318 EPMO-EFHK
Flight info
| Callsign | RYR9318 |
|---|---|
| Flight time | 1h 33m |
| Altitude | 35000 |
| Route | BAMSO DCT ASLUX DCT XESNA DCT BULEP DCT BOKSU DCT GUNTA M857 SOKVA DCT KEMET Q11 INTOR |
| Aircraft | B738/M-SDE3FGILRWY/SB1 |
Departure
| Time | 2026-05-07 21:49 |
|---|---|
| Airport | Warsaw Modlin Airport (EPMO) |
Arrival
| Time | 2026-05-07 23:23 |
|---|---|
| Airport | Helsinki Vantaa Airport (EFHK) |
| Time | Latitude | Longitude | Altitude | Speed | Heading |
|---|---|---|---|---|---|
| 2026-05-07 21:31 | 52.44741 | 20.65181 | 334 ft | 0 kts | 206° |
| 2026-05-07 21:41 | 52.44751 | 20.65190 | 332 ft | 4 kts | 217° |
| 2026-05-07 21:41 | 52.44764 | 20.65205 | 332 ft | 3 kts | 176° |
| 2026-05-07 21:41 | 52.44783 | 20.65199 | 333 ft | 4 kts | 110° |
| 2026-05-07 21:42 | 52.44782 | 20.65165 | 336 ft | 3 kts | 81° |
| 2026-05-07 21:42 | 52.44782 | 20.65157 | 333 ft | 0 kts | 81° |
| 2026-05-07 21:44 | 52.44784 | 20.65186 | 333 ft | 8 kts | 81° |
| 2026-05-07 21:44 | 52.44797 | 20.65325 | 335 ft | 15 kts | 81° |
| 2026-05-07 21:44 | 52.44813 | 20.65494 | 335 ft | 15 kts | 81° |
| 2026-05-07 21:44 | 52.44828 | 20.65653 | 337 ft | 14 kts | 82° |
| 2026-05-07 21:45 | 52.44842 | 20.65808 | 336 ft | 13 kts | 83° |
| 2026-05-07 21:45 | 52.44855 | 20.65957 | 335 ft | 13 kts | 81° |
| 2026-05-07 21:45 | 52.44869 | 20.66100 | 336 ft | 13 kts | 80° |
| 2026-05-07 21:45 | 52.44882 | 20.66245 | 333 ft | 14 kts | 82° |
| 2026-05-07 21:46 | 52.44897 | 20.66412 | 335 ft | 16 kts | 82° |
| 2026-05-07 21:46 | 52.44916 | 20.66604 | 337 ft | 18 kts | 82° |
| 2026-05-07 21:46 | 52.44936 | 20.66814 | 337 ft | 16 kts | 80° |
| 2026-05-07 21:46 | 52.44953 | 20.66982 | 333 ft | 12 kts | 81° |
| 2026-05-07 21:47 | 52.44998 | 20.67075 | 336 ft | 10 kts | 10° |
| 2026-05-07 21:47 | 52.45069 | 20.67064 | 334 ft | 10 kts | 351° |
| 2026-05-07 21:47 | 52.45143 | 20.67043 | 336 ft | 12 kts | 349° |
| 2026-05-07 21:47 | 52.45225 | 20.67004 | 333 ft | 13 kts | 333° |
| 2026-05-07 21:48 | 52.45280 | 20.66897 | 336 ft | 14 kts | 272° |
| 2026-05-07 21:48 | 52.45278 | 20.66848 | 335 ft | 0 kts | 261° |
| 2026-05-07 21:48 | 52.45271 | 20.66778 | 334 ft | 31 kts | 261° |
| 2026-05-07 21:48 | 52.45197 | 20.65996 | 337 ft | 105 kts | 261° |
| 2026-05-07 21:49 | 52.45053 | 20.64460 | 381 ft | 160 kts | 264° |
| 2026-05-07 21:49 | 52.44898 | 20.62504 | 848 ft | 184 kts | 265° |
| 2026-05-07 21:49 | 52.44734 | 20.60386 | 1706 ft | 185 kts | 262° |
| 2026-05-07 21:49 | 52.44485 | 20.58337 | 2628 ft | 190 kts | 258° |
| 2026-05-07 21:50 | 52.44262 | 20.56092 | 3266 ft | 203 kts | 275° |
| 2026-05-07 21:50 | 52.44872 | 20.54065 | 4005 ft | 205 kts | 313° |
| 2026-05-07 21:50 | 52.46003 | 20.52464 | 4345 ft | 230 kts | 329° |
| 2026-05-07 21:50 | 52.47627 | 20.51920 | 4749 ft | 255 kts | 358° |
| 2026-05-07 21:51 | 52.49469 | 20.51915 | 5354 ft | 270 kts | 358° |
| 2026-05-07 21:51 | 52.51356 | 20.51857 | 6292 ft | 273 kts | 355° |
| 2026-05-07 21:51 | 52.53272 | 20.51735 | 7175 ft | 278 kts | 355° |
| 2026-05-07 21:51 | 52.55221 | 20.51579 | 8034 ft | 283 kts | 354° |
| 2026-05-07 21:52 | 52.57204 | 20.51438 | 8891 ft | 289 kts | 360° |
| 2026-05-07 21:52 | 52.59162 | 20.52291 | 9737 ft | 299 kts | 29° |
| 2026-05-07 21:52 | 52.60678 | 20.54637 | 10466 ft | 308 kts | 58° |
| 2026-05-07 21:52 | 52.61423 | 20.58057 | 10730 ft | 331 kts | 82° |
| 2026-05-07 21:53 | 52.61720 | 20.61887 | 11311 ft | 342 kts | 84° |
| 2026-05-07 21:53 | 52.62020 | 20.65804 | 12109 ft | 347 kts | 84° |
| 2026-05-07 21:53 | 52.62353 | 20.69754 | 12961 ft | 350 kts | 83° |
| 2026-05-07 21:53 | 52.62708 | 20.73740 | 13790 ft | 354 kts | 83° |
| 2026-05-07 21:54 | 52.62995 | 20.77794 | 14502 ft | 359 kts | 87° |
| 2026-05-07 21:54 | 52.63150 | 20.81917 | 15205 ft | 363 kts | 89° |
| 2026-05-07 21:54 | 52.63289 | 20.86096 | 15906 ft | 368 kts | 89° |
| 2026-05-07 21:54 | 52.63445 | 20.90332 | 16604 ft | 373 kts | 89° |
| 2026-05-07 21:55 | 52.63586 | 20.94617 | 17331 ft | 376 kts | 93° |
| 2026-05-07 21:55 | 52.63091 | 20.98803 | 17966 ft | 374 kts | 117° |
| 2026-05-07 21:55 | 52.61712 | 21.02386 | 18565 ft | 370 kts | 136° |
| 2026-05-07 21:55 | 52.59767 | 21.05050 | 19338 ft | 360 kts | 150° |
| 2026-05-07 21:56 | 52.57683 | 21.07281 | 20183 ft | 356 kts | 152° |
| 2026-05-07 21:56 | 52.55582 | 21.09464 | 20849 ft | 359 kts | 152° |
| 2026-05-07 21:56 | 52.53464 | 21.11669 | 21484 ft | 361 kts | 152° |
| 2026-05-07 21:56 | 52.51345 | 21.13897 | 22154 ft | 363 kts | 151° |
| 2026-05-07 21:57 | 52.49219 | 21.16150 | 22836 ft | 364 kts | 151° |
| 2026-05-07 21:57 | 52.47093 | 21.18414 | 23491 ft | 365 kts | 150° |
| 2026-05-07 21:57 | 52.44957 | 21.20691 | 24029 ft | 367 kts | 151° |
| 2026-05-07 21:57 | 52.42837 | 21.22947 | 24518 ft | 370 kts | 151° |
| 2026-05-07 21:58 | 52.40710 | 21.25337 | 24998 ft | 376 kts | 143° |
| 2026-05-07 21:58 | 52.39008 | 21.28673 | 25464 ft | 389 kts | 126° |
| 2026-05-07 21:58 | 52.37905 | 21.32788 | 25845 ft | 406 kts | 110° |
| 2026-05-07 21:58 | 52.37444 | 21.37443 | 26110 ft | 420 kts | 103° |
| 2026-05-07 21:59 | 52.37118 | 21.42210 | 26546 ft | 423 kts | 102° |
| 2026-05-07 21:59 | 52.36814 | 21.47008 | 27051 ft | 424 kts | 102° |
| 2026-05-07 21:59 | 52.36502 | 21.51816 | 27519 ft | 426 kts | 102° |
| 2026-05-07 21:59 | 52.36172 | 21.56637 | 27953 ft | 428 kts | 103° |
| 2026-05-07 22:00 | 52.35824 | 21.61487 | 28375 ft | 431 kts | 103° |
| 2026-05-07 22:00 | 52.35465 | 21.66362 | 28785 ft | 433 kts | 103° |
| 2026-05-07 22:00 | 52.35097 | 21.71267 | 29190 ft | 435 kts | 103° |
| 2026-05-07 22:00 | 52.34726 | 21.76187 | 29594 ft | 438 kts | 103° |
| 2026-05-07 22:01 | 52.34351 | 21.81138 | 29955 ft | 440 kts | 103° |
| 2026-05-07 22:01 | 52.33973 | 21.86113 | 30277 ft | 443 kts | 103° |
| 2026-05-07 22:01 | 52.33590 | 21.91118 | 30593 ft | 444 kts | 103° |
| 2026-05-07 22:01 | 52.33259 | 21.96153 | 30996 ft | 445 kts | 101° |
| 2026-05-07 22:02 | 52.32977 | 22.01188 | 31414 ft | 445 kts | 101° |
| 2026-05-07 22:02 | 52.32692 | 22.06225 | 31796 ft | 445 kts | 102° |
| 2026-05-07 22:02 | 52.32688 | 22.11320 | 32103 ft | 458 kts | 85° |
| 2026-05-07 22:02 | 52.33695 | 22.16329 | 32437 ft | 471 kts | 66° |
| 2026-05-07 22:03 | 52.35580 | 22.20735 | 32820 ft | 478 kts | 47° |
| 2026-05-07 22:03 | 52.38126 | 22.24247 | 33212 ft | 479 kts | 38° |
| 2026-05-07 22:03 | 52.40860 | 22.27357 | 33564 ft | 480 kts | 29° |
| 2026-05-07 22:03 | 52.43872 | 22.29726 | 33907 ft | 479 kts | 19° |
| 2026-05-07 22:04 | 52.47033 | 22.31394 | 34260 ft | 476 kts | 10° |
| 2026-05-07 22:04 | 52.50259 | 22.32515 | 34657 ft | 472 kts | 9° |
| 2026-05-07 22:04 | 52.53468 | 22.33577 | 35008 ft | 471 kts | 9° |
| 2026-05-07 22:04 | 52.56699 | 22.34655 | 35007 ft | 476 kts | 9° |
| 2026-05-07 22:05 | 52.62093 | 22.36522 | 35020 ft | 475 kts | 9° |
| 2026-05-07 22:05 | 52.69502 | 22.39173 | 35024 ft | 466 kts | 9° |
| 2026-05-07 22:06 | 52.75853 | 22.41451 | 35039 ft | 468 kts | 9° |
| 2026-05-07 22:06 | 52.81180 | 22.43450 | 35035 ft | 470 kts | 11° |
| 2026-05-07 22:07 | 52.87539 | 22.46033 | 35036 ft | 471 kts | 11° |
| 2026-05-07 22:07 | 52.93909 | 22.48649 | 35034 ft | 472 kts | 11° |
| 2026-05-07 22:08 | 53.00246 | 22.51234 | 35030 ft | 472 kts | 11° |
| 2026-05-07 22:08 | 53.06620 | 22.53825 | 35032 ft | 471 kts | 11° |
| 2026-05-07 22:09 | 53.12984 | 22.56417 | 35038 ft | 470 kts | 11° |
| 2026-05-07 22:09 | 53.19331 | 22.59010 | 35035 ft | 469 kts | 11° |
| 2026-05-07 22:10 | 53.25662 | 22.61605 | 35039 ft | 468 kts | 11° |
| 2026-05-07 22:10 | 53.31980 | 22.64203 | 35043 ft | 467 kts | 11° |
| 2026-05-07 22:11 | 53.38290 | 22.66806 | 35046 ft | 467 kts | 11° |
| 2026-05-07 22:11 | 53.44602 | 22.69416 | 35050 ft | 467 kts | 11° |
| 2026-05-07 22:12 | 53.50905 | 22.72032 | 35046 ft | 466 kts | 11° |
| 2026-05-07 22:12 | 53.57201 | 22.74653 | 35050 ft | 466 kts | 11° |
| 2026-05-07 22:13 | 53.63497 | 22.77281 | 35057 ft | 466 kts | 11° |
| 2026-05-07 22:13 | 53.69791 | 22.79917 | 35059 ft | 466 kts | 11° |
| 2026-05-07 22:14 | 53.76089 | 22.82563 | 35055 ft | 467 kts | 11° |
| 2026-05-07 22:14 | 53.82390 | 22.85218 | 35058 ft | 467 kts | 11° |
| 2026-05-07 22:15 | 53.88697 | 22.87884 | 35058 ft | 467 kts | 11° |
| 2026-05-07 22:15 | 53.95007 | 22.90560 | 35061 ft | 467 kts | 11° |
| 2026-05-07 22:16 | 54.01318 | 22.93245 | 35064 ft | 468 kts | 11° |
| 2026-05-07 22:16 | 54.07634 | 22.95940 | 35061 ft | 468 kts | 11° |
| 2026-05-07 22:17 | 54.13950 | 22.98644 | 35070 ft | 468 kts | 11° |
| 2026-05-07 22:17 | 54.20266 | 23.01356 | 35065 ft | 468 kts | 11° |
| 2026-05-07 22:18 | 54.29687 | 23.05417 | 35068 ft | 467 kts | 11° |
| 2026-05-07 22:19 | 54.36021 | 23.07771 | 35074 ft | 465 kts | 7° |
| 2026-05-07 22:19 | 54.42381 | 23.09738 | 35071 ft | 464 kts | 6° |
| 2026-05-07 22:20 | 54.48734 | 23.11701 | 35065 ft | 463 kts | 7° |
| 2026-05-07 22:20 | 54.55075 | 23.13728 | 35078 ft | 464 kts | 7° |
| 2026-05-07 22:21 | 54.61408 | 23.15780 | 35090 ft | 463 kts | 7° |
| 2026-05-07 22:21 | 54.67742 | 23.17844 | 35076 ft | 463 kts | 7° |
| 2026-05-07 22:22 | 54.74066 | 23.19912 | 35076 ft | 462 kts | 7° |
| 2026-05-07 22:22 | 54.80385 | 23.21986 | 35074 ft | 462 kts | 7° |
| 2026-05-07 22:23 | 54.86707 | 23.24066 | 35084 ft | 462 kts | 7° |
| 2026-05-07 22:23 | 54.93026 | 23.26152 | 35077 ft | 462 kts | 7° |
| 2026-05-07 22:24 | 54.99344 | 23.28243 | 35085 ft | 462 kts | 7° |
| 2026-05-07 22:24 | 55.05662 | 23.30342 | 35086 ft | 462 kts | 7° |
| 2026-05-07 22:25 | 55.11982 | 23.32449 | 35078 ft | 462 kts | 7° |
| 2026-05-07 22:25 | 55.18304 | 23.34562 | 35084 ft | 462 kts | 7° |
| 2026-05-07 22:26 | 55.24624 | 23.36682 | 35089 ft | 463 kts | 7° |
| 2026-05-07 22:26 | 55.30901 | 23.38795 | 35090 ft | 463 kts | 7° |
| 2026-05-07 22:27 | 55.37224 | 23.40929 | 35094 ft | 463 kts | 7° |
| 2026-05-07 22:27 | 55.43550 | 23.43072 | 35102 ft | 463 kts | 7° |
| 2026-05-07 22:28 | 55.49871 | 23.45220 | 35097 ft | 463 kts | 7° |
| 2026-05-07 22:28 | 55.56200 | 23.47384 | 35111 ft | 463 kts | 7° |
| 2026-05-07 22:29 | 55.62525 | 23.49545 | 35103 ft | 463 kts | 7° |
| 2026-05-07 22:29 | 55.68856 | 23.51715 | 35113 ft | 463 kts | 7° |
| 2026-05-07 22:30 | 55.75185 | 23.53893 | 35110 ft | 463 kts | 7° |
| 2026-05-07 22:30 | 55.81513 | 23.56079 | 35115 ft | 463 kts | 7° |
| 2026-05-07 22:31 | 55.87837 | 23.58271 | 35114 ft | 463 kts | 7° |
| 2026-05-07 22:31 | 55.94167 | 23.60472 | 35126 ft | 463 kts | 6° |
| 2026-05-07 22:32 | 56.00490 | 23.62678 | 35112 ft | 463 kts | 6° |
| 2026-05-07 22:32 | 56.06811 | 23.64892 | 35114 ft | 462 kts | 6° |
| 2026-05-07 22:33 | 56.13121 | 23.67108 | 35117 ft | 462 kts | 6° |
| 2026-05-07 22:33 | 56.19425 | 23.69330 | 35144 ft | 461 kts | 6° |
| 2026-05-07 22:34 | 56.25722 | 23.71557 | 35125 ft | 461 kts | 6° |
| 2026-05-07 22:34 | 56.32017 | 23.73790 | 35129 ft | 461 kts | 6° |
| 2026-05-07 22:35 | 56.38300 | 23.76037 | 35126 ft | 460 kts | 7° |
| 2026-05-07 22:35 | 56.44563 | 23.78494 | 35124 ft | 461 kts | 8° |
| 2026-05-07 22:36 | 56.50818 | 23.81008 | 35128 ft | 460 kts | 7° |
| 2026-05-07 22:36 | 56.57071 | 23.83494 | 35134 ft | 460 kts | 7° |
| 2026-05-07 22:37 | 56.63330 | 23.85907 | 35160 ft | 459 kts | 7° |
| 2026-05-07 22:37 | 56.69595 | 23.88181 | 35129 ft | 459 kts | 6° |
| 2026-05-07 22:38 | 56.75845 | 23.90464 | 35137 ft | 458 kts | 6° |
| 2026-05-07 22:38 | 56.82080 | 23.92770 | 35125 ft | 456 kts | 6° |
| 2026-05-07 22:39 | 56.88285 | 23.95078 | 35127 ft | 454 kts | 6° |
| 2026-05-07 22:39 | 56.94470 | 23.97348 | 35129 ft | 452 kts | 5° |
| 2026-05-07 22:40 | 57.00650 | 23.99401 | 35154 ft | 451 kts | 5° |
| 2026-05-07 22:40 | 57.06821 | 24.01419 | 35139 ft | 450 kts | 5° |
| 2026-05-07 22:41 | 57.12988 | 24.03469 | 35141 ft | 450 kts | 5° |
| 2026-05-07 22:41 | 57.19146 | 24.05538 | 35142 ft | 450 kts | 5° |
| 2026-05-07 22:42 | 57.25303 | 24.07617 | 35140 ft | 450 kts | 5° |
| 2026-05-07 22:42 | 57.31470 | 24.09706 | 35152 ft | 451 kts | 5° |
| 2026-05-07 22:43 | 57.37643 | 24.11803 | 35147 ft | 451 kts | 5° |
| 2026-05-07 22:43 | 57.43778 | 24.13893 | 35148 ft | 451 kts | 5° |
| 2026-05-07 22:44 | 57.49954 | 24.16008 | 35148 ft | 451 kts | 5° |
| 2026-05-07 22:44 | 57.56129 | 24.18130 | 35182 ft | 451 kts | 5° |
| 2026-05-07 22:45 | 57.62308 | 24.20260 | 35156 ft | 452 kts | 5° |
| 2026-05-07 22:45 | 57.68485 | 24.22397 | 35148 ft | 451 kts | 5° |
| 2026-05-07 22:46 | 57.74658 | 24.24541 | 35149 ft | 451 kts | 5° |
| 2026-05-07 22:46 | 57.80823 | 24.26689 | 35152 ft | 450 kts | 5° |
| 2026-05-07 22:47 | 57.86981 | 24.28841 | 35168 ft | 450 kts | 5° |
| 2026-05-07 22:47 | 57.93136 | 24.30986 | 35161 ft | 450 kts | 5° |
| 2026-05-07 22:48 | 57.99290 | 24.33094 | 35162 ft | 449 kts | 4° |
| 2026-05-07 22:48 | 58.05440 | 24.35202 | 35160 ft | 449 kts | 4° |
| 2026-05-07 22:49 | 58.11579 | 24.37319 | 35195 ft | 449 kts | 5° |
| 2026-05-07 22:49 | 58.17721 | 24.39447 | 35170 ft | 449 kts | 5° |
| 2026-05-07 22:50 | 58.23861 | 24.41583 | 35159 ft | 447 kts | 5° |
| 2026-05-07 22:50 | 58.26901 | 24.42646 | 34971 ft | 443 kts | 5° |
| 2026-05-07 22:50 | 58.29909 | 24.43701 | 34685 ft | 436 kts | 5° |
| 2026-05-07 22:50 | 58.32879 | 24.44744 | 34323 ft | 432 kts | 5° |
| 2026-05-07 22:51 | 58.35822 | 24.45775 | 33935 ft | 429 kts | 5° |
| 2026-05-07 22:51 | 58.38752 | 24.46803 | 33525 ft | 426 kts | 5° |
| 2026-05-07 22:51 | 58.41652 | 24.47822 | 33182 ft | 423 kts | 4° |
| 2026-05-07 22:51 | 58.43563 | 24.48495 | 32929 ft | 421 kts | 4° |
| 2026-05-07 22:52 | 58.46429 | 24.49505 | 32542 ft | 417 kts | 4° |
| 2026-05-07 22:52 | 58.49273 | 24.50510 | 32178 ft | 414 kts | 4° |
| 2026-05-07 22:52 | 58.52100 | 24.51510 | 31821 ft | 411 kts | 4° |
| 2026-05-07 22:52 | 58.54898 | 24.52501 | 31469 ft | 408 kts | 4° |
| 2026-05-07 22:53 | 58.57681 | 24.53489 | 31120 ft | 405 kts | 4° |
| 2026-05-07 22:53 | 58.60439 | 24.54468 | 30776 ft | 402 kts | 4° |
| 2026-05-07 22:53 | 58.63182 | 24.55445 | 30435 ft | 400 kts | 4° |
| 2026-05-07 22:53 | 58.65909 | 24.56416 | 30083 ft | 397 kts | 4° |
| 2026-05-07 22:54 | 58.68613 | 24.57382 | 29723 ft | 394 kts | 4° |
| 2026-05-07 22:54 | 58.71296 | 24.58343 | 29324 ft | 391 kts | 3° |
| 2026-05-07 22:54 | 58.73959 | 24.59298 | 28991 ft | 386 kts | 3° |
| 2026-05-07 22:54 | 58.76583 | 24.60243 | 28713 ft | 382 kts | 3° |
| 2026-05-07 22:55 | 58.79184 | 24.61179 | 28433 ft | 378 kts | 3° |
| 2026-05-07 22:55 | 58.81749 | 24.62104 | 28145 ft | 373 kts | 3° |
| 2026-05-07 22:55 | 58.84292 | 24.63019 | 27784 ft | 370 kts | 3° |
| 2026-05-07 22:55 | 58.86816 | 24.63928 | 27445 ft | 367 kts | 3° |
| 2026-05-07 22:56 | 58.89319 | 24.64831 | 26337 ft | 365 kts | 7° |
| 2026-05-07 22:56 | 58.91802 | 24.65768 | 26790 ft | 362 kts | 4° |
| 2026-05-07 22:56 | 58.94267 | 24.66656 | 26460 ft | 359 kts | 3° |
| 2026-05-07 22:56 | 58.96712 | 24.67529 | 26159 ft | 356 kts | 3° |
| 2026-05-07 22:57 | 58.99140 | 24.68401 | 25859 ft | 354 kts | 2° |
| 2026-05-07 22:57 | 59.01530 | 24.69263 | 25517 ft | 353 kts | 2° |
| 2026-05-07 22:57 | 59.03941 | 24.70136 | 25179 ft | 352 kts | 2° |
| 2026-05-07 22:57 | 59.06371 | 24.71019 | 24843 ft | 350 kts | 2° |
| 2026-05-07 22:58 | 59.08763 | 24.71891 | 24509 ft | 349 kts | 2° |
| 2026-05-07 22:58 | 59.11112 | 24.72748 | 24181 ft | 348 kts | 2° |
| 2026-05-07 22:58 | 59.13487 | 24.73616 | 23853 ft | 346 kts | 2° |
| 2026-05-07 22:58 | 59.15853 | 24.74482 | 23489 ft | 345 kts | 2° |
| 2026-05-07 22:59 | 59.18208 | 24.75345 | 23112 ft | 344 kts | 3° |
| 2026-05-07 22:59 | 59.20548 | 24.76205 | 22763 ft | 341 kts | 3° |
| 2026-05-07 22:59 | 59.22875 | 24.77061 | 22449 ft | 338 kts | 3° |
| 2026-05-07 22:59 | 59.25179 | 24.77910 | 22108 ft | 336 kts | 3° |
| 2026-05-07 23:00 | 59.27470 | 24.78755 | 21780 ft | 334 kts | 3° |
| 2026-05-07 23:00 | 59.29744 | 24.79594 | 21462 ft | 331 kts | 3° |
| 2026-05-07 23:00 | 59.32003 | 24.80428 | 21144 ft | 329 kts | 3° |
| 2026-05-07 23:00 | 59.34251 | 24.81259 | 20831 ft | 328 kts | 3° |
| 2026-05-07 23:01 | 59.36484 | 24.82086 | 20510 ft | 326 kts | 3° |
| 2026-05-07 23:01 | 59.38705 | 24.82911 | 20203 ft | 324 kts | 3° |
| 2026-05-07 23:01 | 59.40914 | 24.83766 | 19879 ft | 325 kts | 6° |
| 2026-05-07 23:01 | 59.43064 | 24.85192 | 19670 ft | 326 kts | 15° |
| 2026-05-07 23:02 | 59.45141 | 24.86970 | 19360 ft | 326 kts | 17° |
| 2026-05-07 23:02 | 59.47206 | 24.88781 | 19068 ft | 324 kts | 17° |
| 2026-05-07 23:02 | 59.49269 | 24.90545 | 18761 ft | 323 kts | 17° |
| 2026-05-07 23:02 | 59.51334 | 24.92278 | 18451 ft | 322 kts | 16° |
| 2026-05-07 23:03 | 59.53394 | 24.93995 | 18133 ft | 321 kts | 15° |
| 2026-05-07 23:03 | 59.55441 | 24.95705 | 17814 ft | 319 kts | 15° |
| 2026-05-07 23:03 | 59.57477 | 24.97402 | 17479 ft | 317 kts | 15° |
| 2026-05-07 23:03 | 59.59501 | 24.99090 | 17163 ft | 315 kts | 15° |
| 2026-05-07 23:04 | 59.61512 | 25.00770 | 16854 ft | 312 kts | 15° |
| 2026-05-07 23:04 | 59.63504 | 25.02438 | 16549 ft | 310 kts | 15° |
| 2026-05-07 23:04 | 59.65486 | 25.04099 | 16250 ft | 308 kts | 16° |
| 2026-05-07 23:04 | 59.67454 | 25.05750 | 15950 ft | 306 kts | 16° |
| 2026-05-07 23:05 | 59.69407 | 25.07391 | 15656 ft | 304 kts | 16° |
| 2026-05-07 23:05 | 59.71349 | 25.09024 | 15362 ft | 302 kts | 16° |
| 2026-05-07 23:05 | 59.73274 | 25.10645 | 15058 ft | 300 kts | 16° |
| 2026-05-07 23:05 | 59.75192 | 25.12263 | 14785 ft | 298 kts | 16° |
| 2026-05-07 23:06 | 59.77095 | 25.13869 | 14493 ft | 297 kts | 16° |
| 2026-05-07 23:06 | 59.78988 | 25.15469 | 14204 ft | 295 kts | 17° |
| 2026-05-07 23:06 | 59.80848 | 25.17045 | 13940 ft | 293 kts | 15° |
| 2026-05-07 23:06 | 59.82719 | 25.18633 | 13609 ft | 292 kts | 16° |
| 2026-05-07 23:07 | 59.84563 | 25.20197 | 13458 ft | 284 kts | 16° |
| 2026-05-07 23:07 | 59.86373 | 25.21733 | 13200 ft | 281 kts | 16° |
| 2026-05-07 23:07 | 59.88165 | 25.23253 | 12917 ft | 279 kts | 16° |
| 2026-05-07 23:07 | 59.89952 | 25.24719 | 12632 ft | 274 kts | 11° |
| 2026-05-07 23:08 | 59.91809 | 25.25050 | 12362 ft | 260 kts | 350° |
| 2026-05-07 23:08 | 59.93580 | 25.24786 | 12073 ft | 259 kts | 350° |
| 2026-05-07 23:08 | 59.95393 | 25.24512 | 11784 ft | 257 kts | 351° |
| 2026-05-07 23:08 | 59.97150 | 25.24248 | 11521 ft | 256 kts | 351° |
| 2026-05-07 23:09 | 59.98945 | 25.23983 | 11239 ft | 255 kts | 352° |
| 2026-05-07 23:09 | 60.00684 | 25.23730 | 10971 ft | 254 kts | 352° |
| 2026-05-07 23:09 | 60.02442 | 25.23475 | 10700 ft | 253 kts | 352° |
| 2026-05-07 23:09 | 60.04195 | 25.23223 | 10429 ft | 252 kts | 353° |
| 2026-05-07 23:10 | 60.05932 | 25.22975 | 10273 ft | 247 kts | 353° |
| 2026-05-07 23:10 | 60.07636 | 25.22731 | 10067 ft | 247 kts | 353° |
| 2026-05-07 23:10 | 60.09375 | 25.22481 | 9813 ft | 253 kts | 353° |
| 2026-05-07 23:10 | 60.11152 | 25.22225 | 9540 ft | 259 kts | 353° |
| 2026-05-07 23:11 | 60.12956 | 25.21967 | 9243 ft | 259 kts | 353° |
| 2026-05-07 23:11 | 60.14752 | 25.21712 | 8943 ft | 258 kts | 353° |
| 2026-05-07 23:11 | 60.16535 | 25.21458 | 8668 ft | 256 kts | 353° |
| 2026-05-07 23:11 | 60.18310 | 25.21204 | 8401 ft | 255 kts | 353° |
| 2026-05-07 23:12 | 60.20073 | 25.20951 | 8127 ft | 253 kts | 353° |
| 2026-05-07 23:12 | 60.21828 | 25.20699 | 7863 ft | 252 kts | 353° |
| 2026-05-07 23:12 | 60.23569 | 25.20449 | 7603 ft | 251 kts | 353° |
| 2026-05-07 23:12 | 60.25308 | 25.20199 | 7325 ft | 250 kts | 353° |
| 2026-05-07 23:13 | 60.27041 | 25.19949 | 7053 ft | 249 kts | 353° |
| 2026-05-07 23:13 | 60.28766 | 25.19701 | 6792 ft | 248 kts | 353° |
| 2026-05-07 23:13 | 60.30488 | 25.19548 | 6510 ft | 249 kts | 3° |
| 2026-05-07 23:13 | 60.32098 | 25.20813 | 6264 ft | 252 kts | 34° |
| 2026-05-07 23:14 | 60.33364 | 25.23224 | 6145 ft | 247 kts | 45° |
| 2026-05-07 23:14 | 60.34475 | 25.25747 | 6031 ft | 234 kts | 45° |
| 2026-05-07 23:14 | 60.35515 | 25.28129 | 5914 ft | 219 kts | 45° |
| 2026-05-07 23:14 | 60.36497 | 25.30355 | 5809 ft | 205 kts | 45° |
| 2026-05-07 23:15 | 60.37424 | 25.32455 | 5612 ft | 194 kts | 44° |
| 2026-05-07 23:15 | 60.38307 | 25.34440 | 5308 ft | 186 kts | 44° |
| 2026-05-07 23:15 | 60.39147 | 25.36324 | 5173 ft | 178 kts | 44° |
| 2026-05-07 23:15 | 60.39981 | 25.38185 | 5071 ft | 180 kts | 44° |
| 2026-05-07 23:16 | 60.40856 | 25.39993 | 4895 ft | 178 kts | 40° |
| 2026-05-07 23:16 | 60.41731 | 25.41680 | 4867 ft | 169 kts | 34° |
| 2026-05-07 23:16 | 60.42800 | 25.42308 | 4860 ft | 165 kts | 344° |
| 2026-05-07 23:16 | 60.43682 | 25.40922 | 4828 ft | 167 kts | 301° |
| 2026-05-07 23:17 | 60.44210 | 25.38793 | 4676 ft | 171 kts | 293° |
| 2026-05-07 23:17 | 60.44602 | 25.36543 | 4483 ft | 168 kts | 290° |
| 2026-05-07 23:17 | 60.44969 | 25.34324 | 4288 ft | 164 kts | 290° |
| 2026-05-07 23:17 | 60.45323 | 25.32127 | 4121 ft | 165 kts | 290° |
| 2026-05-07 23:18 | 60.45675 | 25.29913 | 3948 ft | 166 kts | 290° |
| 2026-05-07 23:18 | 60.45926 | 25.27630 | 3739 ft | 170 kts | 270° |
| 2026-05-07 23:18 | 60.45419 | 25.25489 | 3696 ft | 169 kts | 235° |
| 2026-05-07 23:18 | 60.44674 | 25.23599 | 3634 ft | 177 kts | 235° |
| 2026-05-07 23:19 | 60.43850 | 25.21654 | 3400 ft | 183 kts | 233° |
| 2026-05-07 23:19 | 60.42997 | 25.19748 | 3135 ft | 182 kts | 231° |
| 2026-05-07 23:19 | 60.42143 | 25.17869 | 2889 ft | 180 kts | 232° |
| 2026-05-07 23:19 | 60.41304 | 25.16031 | 2634 ft | 177 kts | 232° |
| 2026-05-07 23:20 | 60.40474 | 25.14206 | 2402 ft | 181 kts | 232° |
| 2026-05-07 23:20 | 60.39619 | 25.12330 | 2159 ft | 176 kts | 232° |
| 2026-05-07 23:20 | 60.38819 | 25.10575 | 1921 ft | 163 kts | 233° |
| 2026-05-07 23:20 | 60.38068 | 25.08923 | 1687 ft | 157 kts | 234° |
| 2026-05-07 23:21 | 60.37328 | 25.07294 | 1474 ft | 158 kts | 233° |
| 2026-05-07 23:21 | 60.36563 | 25.05669 | 1249 ft | 161 kts | 231° |
| 2026-05-07 23:21 | 60.35814 | 25.04071 | 999 ft | 155 kts | 235° |
| 2026-05-07 23:21 | 60.35128 | 25.02464 | 802 ft | 148 kts | 233° |
| 2026-05-07 23:22 | 60.34442 | 25.00938 | 629 ft | 145 kts | 232° |
| 2026-05-07 23:22 | 60.33773 | 24.99450 | 411 ft | 142 kts | 230° |
| 2026-05-07 23:22 | 60.33109 | 24.98009 | 219 ft | 134 kts | 233° |
| 2026-05-07 23:22 | 60.32525 | 24.96706 | 173 ft | 110 kts | 229° |
| 2026-05-07 23:23 | 60.32111 | 24.95798 | 174 ft | 66 kts | 227° |
| 2026-05-07 23:23 | 60.31886 | 24.95356 | 173 ft | 37 kts | 211° |
| 2026-05-07 23:23 | 60.31746 | 24.95234 | 172 ft | 14 kts | 198° |
| 2026-05-07 23:23 | 60.31650 | 24.95201 | 170 ft | 14 kts | 161° |
| 2026-05-07 23:24 | 60.31640 | 24.95324 | 169 ft | 10 kts | 54° |
| 2026-05-07 23:24 | 60.31687 | 24.95425 | 170 ft | 10 kts | 47° |
| 2026-05-07 23:24 | 60.31692 | 24.95561 | 166 ft | 12 kts | 127° |
| 2026-05-07 23:24 | 60.31634 | 24.95672 | 166 ft | 11 kts | 131° |
| 2026-05-07 23:25 | 60.31588 | 24.95762 | 166 ft | 7 kts | 137° |
| 2026-05-07 23:25 | 60.31557 | 24.95819 | 166 ft | 2 kts | 137° |
| 2026-05-07 23:25 | 60.31553 | 24.95826 | 166 ft | 0 kts | 137° |